Time;durP1;ratioP1;P1;durP2;ratioP2;P2;SDS_P1;SDS_P2;PMS_P1;PMS_P2;Temp;Humidity;BMP_temperature;BMP_pressure;BME280_temperature;BME280_humidity;BME280_pressure;Samples;Min_cycle;Max_cycle;Signal;HPM_P1;HPM_P2
2022/04/27 12:04:16;;;;;;;;;;;11.80;80.30;;;;;;5054556;28;20385;-54
2022/04/27 12:06:44;;;;;;;7.72;2.72;;;12.00;81.20;;;;;;5050173;28;19968;-55
2022/04/27 12:09:11;;;;;;;8.27;2.83;;;12.10;80.60;;;;;;5049556;28;20064;-55
2022/04/27 12:11:38;;;;;;;9.82;3.28;;;12.20;80.60;;;;;;5049542;28;20045;-51
2022/04/27 12:14:05;;;;;;;8.18;2.85;;;12.20;80.00;;;;;;5049083;28;20038;-55
2022/04/27 12:16:31;;;;;;;9.85;3.15;;;12.10;80.00;;;;;;5047030;28;20052;-53
2022/04/27 12:18:59;;;;;;;6.45;2.83;;;11.90;80.70;;;;;;5049425;28;20488;-55
2022/04/27 12:21:27;;;;;;;7.78;2.88;;;11.90;80.20;;;;;;5048490;28;20144;-54
2022/04/27 12:23:57;;;;;;;7.18;2.70;;;11.90;80.40;;;;;;5048427;28;20045;-53
2022/04/27 12:26:24;;;;;;;6.10;2.33;;;11.80;80.80;;;;;;5049144;28;20041;-55
2022/04/27 12:28:51;;;;;;;7.15;2.65;;;11.80;80.50;;;;;;5049488;28;20059;-54
2022/04/27 12:31:20;;;;;;;7.28;2.80;;;11.80;79.60;;;;;;5049339;28;20455;-54
2022/04/27 12:33:48;;;;;;;8.10;2.65;;;11.80;80.90;;;;;;5048816;28;20049;-52
2022/04/27 12:39:03;;;;;;;12.30;2.78;;;11.90;79.90;;;;;;5049134;28;20029;-52
2022/04/27 12:41:30;;;;;;;5.65;2.15;;;11.90;79.90;;;;;;5049928;28;20045;-55
2022/04/27 12:43:57;;;;;;;8.75;2.70;;;11.90;79.60;;;;;;5049744;28;20087;-55
2022/04/27 12:46:44;;;;;;;8.95;2.67;;;12.00;80.00;;;;;;5050593;28;20045;-54
2022/04/27 12:49:11;;;;;;;8.75;2.58;;;12.00;79.40;;;;;;5050135;28;20045;-55
2022/04/27 12:51:38;;;;;;;5.65;1.88;;;12.00;79.40;;;;;;5049741;28;20386;-55
2022/04/27 12:54:09;;;;;;;6.45;2.35;;;12.00;78.80;;;;;;5049895;28;20044;-52
2022/04/27 12:56:36;;;;;;;8.63;2.72;;;12.00;78.60;;;;;;5049641;28;20118;-54
2022/04/27 12:59:03;;;;;;;5.63;2.53;;;12.10;79.30;;;;;;5049785;28;20048;-53
2022/04/27 13:01:30;;;;;;;5.45;2.38;;;12.00;79.00;;;;;;5048288;28;20503;-54
2022/04/27 13:03:57;;;;;;;6.88;2.50;;;12.10;78.90;;;;;;5049295;28;20136;-53
2022/04/27 13:06:24;;;;;;;7.53;2.28;;;12.20;78.70;;;;;;5050033;28;20037;-54
2022/04/27 13:08:50;;;;;;;5.97;1.75;;;12.00;78.20;;;;;;5049310;28;20113;-51
2022/04/27 13:14:02;;;;;;;5.90;2.53;;;11.90;78.40;;;;;;5045147;28;20451;-57
2022/04/27 13:16:29;;;;;;;7.18;2.30;;;12.00;78.20;;;;;;5035237;28;20073;-56
2022/04/27 13:18:56;;;;;;;6.28;2.30;;;12.10;78.20;;;;;;5030114;28;20412;-53
2022/04/27 13:21:23;;;;;;;9.27;2.30;;;12.10;77.60;;;;;;5035614;28;20034;-57
2022/04/27 13:23:50;;;;;;;3.95;1.80;;;12.10;77.40;;;;;;5035452;28;20042;-52
2022/04/27 13:26:17;;;;;;;3.88;1.92;;;12.10;76.80;;;;;;5035520;28;20037;-58
2022/04/27 13:28:43;;;;;;;9.35;2.50;;;12.10;76.40;;;;;;5035320;28;20508;-57
2022/04/27 13:31:10;;;;;;;5.00;1.70;;;12.10;76.70;;;;;;5035352;28;20095;-56
2022/04/27 13:33:37;;;;;;;4.25;1.75;;;12.20;76.40;;;;;;5036368;28;20045;-58
2022/04/27 13:36:04;;;;;;;6.90;1.90;;;12.20;76.40;;;;;;5035465;28;20441;-54
2022/04/27 13:38:31;;;;;;;7.68;2.63;;;12.10;76.30;;;;;;5035251;28;20050;-54
2022/04/27 13:40:58;;;;;;;8.95;2.22;;;12.00;76.50;;;;;;5035259;28;20408;-54
2022/04/27 13:43:24;;;;;;;7.90;2.85;;;12.00;76.70;;;;;;5034834;28;20037;-56
2022/04/27 13:45:51;;;;;;;9.07;3.17;;;12.10;76.50;;;;;;5035090;28;20128;-51
2022/04/27 13:48:18;;;;;;;5.80;2.70;;;12.10;76.40;;;;;;5035182;28;20034;-55
2022/04/27 13:50:45;;;;;;;8.90;3.50;;;12.10;76.40;;;;;;5034854;28;20069;-54
2022/04/27 13:53:12;;;;;;;5.28;2.67;;;12.10;76.90;;;;;;5033717;28;20049;-51
2022/04/27 13:55:39;;;;;;;6.78;2.65;;;12.20;77.40;;;;;;5034714;28;20049;-53
2022/04/27 13:58:06;;;;;;;6.75;2.78;;;12.30;76.60;;;;;;5034716;28;20076;-49
2022/04/27 14:00:52;;;;;;;5.93;2.53;;;12.40;76.10;;;;;;5034801;28;20100;-57
2022/04/27 14:03:19;;;;;;;11.75;3.47;;;12.40;76.40;;;;;;5038218;28;20508;-55
2022/04/27 14:05:47;;;;;;;7.85;2.88;;;12.40;75.60;;;;;;5038359;28;20040;-57
2022/04/27 14:08:14;;;;;;;7.82;2.60;;;12.30;75.90;;;;;;5040499;28;20042;-53
2022/04/27 14:10:41;;;;;;;9.48;3.00;;;12.30;76.60;;;;;;5034505;28;20045;-52
2022/04/27 14:13:13;;;;;;;8.13;2.53;;;12.40;77.60;;;;;;5028063;28;20049;-54
2022/04/27 14:15:40;;;;;;;6.05;2.35;;;12.60;76.90;;;;;;5028789;28;20038;-57
2022/04/27 14:18:10;;;;;;;9.00;2.70;;;12.50;76.10;;;;;;5034478;28;20538;-54
2022/04/27 14:20:37;;;;;;;8.63;3.13;;;12.40;76.10;;;;;;5034365;28;20048;-56
2022/04/27 14:23:03;;;;;;;8.02;2.60;;;12.30;76.00;;;;;;5032831;28;20037;-57
2022/04/27 14:25:30;;;;;;;8.95;2.78;;;12.30;76.60;;;;;;5027566;28;20054;-57
2022/04/27 14:27:57;;;;;;;13.18;2.83;;;12.50;77.80;;;;;;5033245;28;20061;-55
2022/04/27 14:30:24;;;;;;;8.02;2.63;;;12.50;78.10;;;;;;5033678;28;20037;-58
2022/04/27 14:32:51;;;;;;;8.57;2.83;;;12.40;77.60;;;;;;5032648;28;20042;-52
2022/04/27 14:35:18;;;;;;;8.75;3.05;;;12.40;78.90;;;;;;5033419;28;20045;-52
2022/04/27 14:37:45;;;;;;;9.60;2.72;;;12.30;79.60;;;;;;5033450;28;20045;-53
2022/04/27 14:40:11;;;;;;;10.25;2.80;;;12.30;80.40;;;;;;5033923;28;20045;-55
2022/04/27 14:42:39;;;;;;;9.73;3.10;;;12.30;80.90;;;;;;5023411;28;20085;-56
2022/04/27 14:45:06;;;;;;;8.38;3.28;;;12.40;81.70;;;;;;5033763;28;20044;-51
2022/04/27 14:47:33;;;;;;;9.82;2.75;;;12.40;81.80;;;;;;5040668;28;20041;-50
2022/04/27 14:50:00;;;;;;;9.82;3.42;;;12.40;82.10;;;;;;5032900;28;20044;-52
2022/04/27 14:52:27;;;;;;;9.45;3.60;;;12.40;81.80;;;;;;5031166;28;20037;-54
2022/04/27 14:54:54;;;;;;;8.65;3.38;;;12.30;82.50;;;;;;5042579;28;20041;-55
2022/04/27 14:57:20;;;;;;;10.77;3.60;;;12.30;82.30;;;;;;5033093;28;20030;-52
2022/04/27 14:59:47;;;;;;;13.70;3.88;;;12.30;83.10;;;;;;5033118;28;20091;-57
2022/04/27 15:02:14;;;;;;;11.90;3.47;;;12.20;83.30;;;;;;5032081;28;20060;-56
2022/04/27 15:04:41;;;;;;;9.65;3.10;;;12.30;83.90;;;;;;5033137;28;20034;-53
2022/04/27 15:07:08;;;;;;;10.65;4.13;;;12.30;83.70;;;;;;5033055;28;20515;-55
2022/04/27 15:09:35;;;;;;;15.00;3.63;;;12.30;83.40;;;;;;5033695;28;20459;-53
2022/04/27 15:12:02;;;;;;;11.55;3.13;;;12.20;84.10;;;;;;5031758;28;20033;-57
2022/04/27 15:14:29;;;;;;;14.18;3.58;;;12.30;83.70;;;;;;5033435;28;20050;-55
2022/04/27 15:16:56;;;;;;;10.77;3.63;;;12.30;83.50;;;;;;5033350;28;20072;-56
2022/04/27 15:19:23;;;;;;;9.07;3.15;;;12.40;83.60;;;;;;5032348;28;20053;-58
2022/04/27 15:24:35;;;;;;;12.13;3.28;;;12.40;84.00;;;;;;5035685;28;20041;-55
2022/04/27 15:27:03;;;;;;;13.10;3.55;;;12.40;83.30;;;;;;5033171;28;20431;-51
2022/04/27 15:29:30;;;;;;;14.98;3.20;;;12.30;83.90;;;;;;5032946;28;20060;-52
2022/04/27 15:31:57;;;;;;;9.27;3.40;;;12.40;83.70;;;;;;5033383;28;20065;-50
2022/04/27 15:34:24;;;;;;;10.75;3.50;;;12.40;83.10;;;;;;5032841;28;20140;-52
2022/04/27 15:36:51;;;;;;;10.55;3.35;;;12.40;83.70;;;;;;5032535;28;20034;-56
2022/04/27 15:39:17;;;;;;;11.18;3.17;;;12.40;82.20;;;;;;5032505;28;20049;-54
2022/04/27 15:41:44;;;;;;;13.35;3.40;;;12.40;81.60;;;;;;5031817;28;20037;-57
2022/04/27 15:44:12;;;;;;;11.48;3.90;;;12.20;82.50;;;;;;5032127;28;20084;-54
2022/04/27 15:46:39;;;;;;;14.77;3.97;;;12.20;83.00;;;;;;5032256;28;20463;-57
2022/04/27 15:49:06;;;;;;;12.68;3.28;;;12.10;83.30;;;;;;5032157;28;20038;-58
2022/04/27 15:51:33;;;;;;;9.07;2.85;;;12.00;84.40;;;;;;5032545;28;20037;-54
2022/04/27 15:53:59;;;;;;;16.33;3.28;;;12.00;84.10;;;;;;5031477;28;20055;-51
2022/04/27 15:56:26;;;;;;;13.50;3.00;;;11.90;84.00;;;;;;5029647;28;20111;-56
2022/04/27 15:58:54;;;;;;;14.52;3.92;;;11.80;83.90;;;;;;5036727;28;20052;-51
2022/04/27 16:01:21;;;;;;;8.30;2.85;;;11.70;83.50;;;;;;5037552;28;20488;-57
2022/04/27 16:03:48;;;;;;;11.45;3.08;;;11.70;84.30;;;;;;5032187;28;20464;-49
2022/04/27 16:06:15;;;;;;;10.88;2.70;;;11.80;84.00;;;;;;5032199;28;20030;-55
2022/04/27 16:08:41;;;;;;;9.38;3.00;;;11.80;84.20;;;;;;5031828;28;20064;-56
2022/04/27 16:11:08;;;;;;;13.32;3.22;;;11.90;84.40;;;;;;5032422;28;20079;-55
2022/04/27 16:13:35;;;;;;;11.32;3.22;;;11.90;84.40;;;;;;5032621;28;20049;-54
2022/04/27 16:16:02;;;;;;;11.30;3.40;;;11.90;84.10;;;;;;5032147;28;20096;-53
2022/04/27 16:18:28;;;;;;;8.48;3.00;;;12.00;84.80;;;;;;5032524;28;20096;-53
2022/04/27 16:23:41;;;;;;;12.82;3.08;;;11.80;83.50;;;;;;5037912;28;20056;-53
2022/04/27 16:26:09;;;;;;;12.43;2.90;;;11.80;83.20;;;;;;5032781;28;20045;-53
2022/04/27 16:28:36;;;;;;;8.98;3.15;;;11.80;83.00;;;;;;5031204;28;20038;-55
2022/04/27 16:31:02;;;;;;;11.75;3.03;;;11.80;82.80;;;;;;5031864;28;20564;-56
2022/04/27 16:33:29;;;;;;;8.90;3.05;;;11.90;82.80;;;;;;5032352;28;20041;-58
2022/04/27 16:35:56;;;;;;;9.48;2.80;;;11.90;82.20;;;;;;5032575;28;20069;-55
2022/04/27 16:38:23;;;;;;;5.90;2.33;;;11.90;80.90;;;;;;5032309;28;20052;-53
2022/04/27 16:40:50;;;;;;;10.25;2.58;;;12.00;81.30;;;;;;5032471;28;20042;-51
2022/04/27 16:43:37;;;;;;;5.65;2.30;;;12.00;80.20;;;;;;5030928;28;20046;-53
2022/04/27 16:46:03;;;;;;;10.43;2.80;;;11.90;79.10;;;;;;5032276;28;20045;-57
2022/04/27 16:48:31;;;;;;;9.10;2.53;;;11.90;77.50;;;;;;5032356;28;20189;-53
2022/04/27 16:50:57;;;;;;;5.43;2.58;;;11.80;76.70;;;;;;5035528;28;20033;-52
2022/04/27 16:53:26;;;;;;;6.53;2.60;;;11.80;77.60;;;;;;5041755;28;20041;-53
2022/04/27 16:55:53;;;;;;;7.20;2.50;;;11.80;77.80;;;;;;5035961;28;20052;-51
2022/04/27 16:58:20;;;;;;;9.88;2.88;;;11.80;78.10;;;;;;5036175;28;20041;-51
2022/04/27 17:00:53;;;;;;;11.25;3.13;;;11.90;79.30;;;;;;5034497;28;20053;-54
2022/04/27 17:03:21;;;;;;;10.00;2.45;;;11.80;81.90;;;;;;5034166;28;20058;-54
2022/04/27 17:05:47;;;;;;;14.65;4.15;;;11.70;82.80;;;;;;5035918;28;20116;-51
2022/04/27 17:08:14;;;;;;;9.55;3.10;;;11.60;83.40;;;;;;5036072;28;20041;-52
2022/04/27 17:10:41;;;;;;;9.43;3.33;;;11.70;84.10;;;;;;5018211;28;20049;-53
2022/04/27 17:13:08;;;;;;;14.02;3.22;;;11.70;84.20;;;;;;5035663;28;20124;-58
2022/04/27 17:15:35;;;;;;;12.45;3.10;;;11.80;84.40;;;;;;5033086;28;20436;-53
2022/04/27 17:18:04;;;;;;;10.68;3.10;;;11.70;84.60;;;;;;5034570;28;20033;-50
2022/04/27 17:20:31;;;;;;;9.05;2.70;;;11.80;84.70;;;;;;5032945;28;20075;-55
2022/04/27 17:22:58;;;;;;;12.80;3.10;;;11.80;84.90;;;;;;5038278;28;20068;-52
2022/04/27 17:28:15;;;;;;;10.25;3.17;;;11.80;83.60;;;;;;5052706;28;20057;-52
2022/04/27 17:30:41;;;;;;;12.13;2.80;;;11.90;83.80;;;;;;5035727;28;20065;-55
2022/04/27 17:33:08;;;;;;;13.75;3.28;;;12.00;83.00;;;;;;5034219;28;20512;-54
2022/04/27 17:35:35;;;;;;;10.23;2.97;;;12.00;83.30;;;;;;5034421;28;20041;-52
2022/04/27 17:38:02;;;;;;;8.65;3.10;;;11.90;84.00;;;;;;5037502;28;20471;-54
2022/04/27 17:40:29;;;;;;;11.98;2.92;;;11.80;84.80;;;;;;5036890;28;20049;-54
2022/04/27 17:42:56;;;;;;;10.52;2.85;;;11.80;84.70;;;;;;5035269;28;20041;-52
2022/04/27 17:45:45;;;;;;;14.45;3.35;;;11.80;85.30;;;;;;5040329;28;20511;-52
2022/04/27 17:48:11;;;;;;;15.00;2.92;;;11.70;85.80;;;;;;5035497;28;20504;-52
2022/04/27 17:50:38;;;;;;;13.35;3.10;;;11.70;86.00;;;;;;5037422;28;20065;-49
2022/04/27 17:53:05;;;;;;;10.07;2.95;;;11.70;86.30;;;;;;5035431;28;20507;-53
2022/04/27 17:55:32;;;;;;;14.85;3.20;;;11.60;85.70;;;;;;5034006;28;20034;-50
2022/04/27 17:57:59;;;;;;;16.40;3.92;;;11.60;86.50;;;;;;5035355;28;20037;-52
2022/04/27 18:00:26;;;;;;;13.65;3.00;;;11.50;86.50;;;;;;5035148;28;20038;-51
2022/04/27 18:02:53;;;;;;;14.05;3.42;;;11.50;87.00;;;;;;5036658;28;20045;-54
2022/04/27 18:05:21;;;;;;;18.40;3.78;;;11.50;87.00;;;;;;5035893;28;20481;-57
2022/04/27 18:07:53;;;;;;;10.65;3.30;;;11.40;87.30;;;;;;5034926;28;20407;-57
2022/04/27 18:10:22;;;;;;;11.32;3.15;;;11.30;87.60;;;;;;5034983;28;20092;-50
2022/04/27 18:12:49;;;;;;;16.17;3.38;;;11.20;87.80;;;;;;5034761;28;20037;-52
2022/04/27 18:15:15;;;;;;;12.63;4.22;;;11.20;88.20;;;;;;5034309;28;20404;-55
2022/04/27 18:17:42;;;;;;;26.63;8.05;;;11.10;87.60;;;;;;5033281;28;20041;-55
2022/04/27 18:20:11;;;;;;;12.38;4.93;;;11.30;87.30;;;;;;5034751;28;20037;-50
2022/04/27 18:22:38;;;;;;;12.10;3.33;;;11.40;86.70;;;;;;5034609;28;20099;-54
2022/04/27 18:25:05;;;;;;;12.15;3.22;;;11.30;86.60;;;;;;5034768;28;20041;-52
2022/04/27 18:27:32;;;;;;;12.18;3.15;;;11.10;86.70;;;;;;5034859;28;20034;-54
2022/04/27 18:29:59;;;;;;;14.10;3.53;;;11.00;87.00;;;;;;5033381;28;20144;-55
2022/04/27 18:32:26;;;;;;;16.27;3.10;;;10.90;87.60;;;;;;5032592;28;20041;-53
2022/04/27 18:34:53;;;;;;;12.45;2.67;;;10.80;87.60;;;;;;5034260;28;20104;-49
2022/04/27 18:37:20;;;;;;;13.32;3.10;;;10.70;87.80;;;;;;5017081;28;20051;-52
2022/04/27 18:39:47;;;;;;;10.32;3.30;;;10.60;87.90;;;;;;5033281;28;20054;-54
2022/04/27 18:42:17;;;;;;;14.43;3.20;;;10.50;88.20;;;;;;5036019;28;20099;-51
2022/04/27 18:50:16;;;;;;;13.50;3.00;;;10.40;89.40;;;;;;5034675;28;20049;-53
2022/04/27 18:52:44;;;;;;;11.63;3.28;;;10.20;89.80;;;;;;5016874;28;20073;-56
2022/04/27 18:55:12;;;;;;;11.65;2.95;;;10.10;90.20;;;;;;5033119;28;20489;-57
2022/04/27 18:57:41;;;;;;;12.68;3.03;;;10.10;90.30;;;;;;5017875;28;20095;-53
2022/04/27 19:00:08;;;;;;;11.45;3.60;;;10.10;90.50;;;;;;5034223;28;20049;-54
2022/04/27 19:02:35;;;;;;;11.05;3.08;;;10.10;90.60;;;;;;5033839;28;20045;-51
2022/04/27 19:05:02;;;;;;;14.88;3.10;;;10.10;90.70;;;;;;5016611;28;20128;-55
2022/04/27 19:07:32;;;;;;;25.52;13.35;;;10.00;90.80;;;;;;5032845;28;20128;-56
2022/04/27 19:10:00;;;;;;;18.60;3.95;;;10.00;90.90;;;;;;5032950;28;20404;-51
2022/04/27 19:12:29;;;;;;;17.50;3.90;;;9.90;91.00;;;;;;5032247;28;20562;-50
2022/04/27 19:14:57;;;;;;;11.00;3.33;;;9.90;91.40;;;;;;5032803;28;20099;-50
2022/04/27 19:17:24;;;;;;;13.40;3.90;;;9.70;91.40;;;;;;5033772;28;20120;-51
2022/04/27 19:19:51;;;;;;;12.75;3.92;;;9.70;91.60;;;;;;5034033;28;20045;-55
2022/04/27 19:22:18;;;;;;;10.25;3.38;;;9.60;91.80;;;;;;5039221;28;20095;-55
2022/04/27 19:24:45;;;;;;;14.02;3.92;;;9.60;91.80;;;;;;5033686;28;20080;-54
2022/04/27 19:27:13;;;;;;;14.40;4.00;;;9.60;91.90;;;;;;5033620;28;20072;-50
2022/04/27 19:29:41;;;;;;;14.90;3.83;;;9.50;92.00;;;;;;5033975;28;20038;-55
2022/04/27 19:32:08;;;;;;;14.18;3.90;;;9.50;92.00;;;;;;5036019;28;20037;-54
2022/04/27 19:34:37;;;;;;;16.35;3.92;;;9.50;92.00;;;;;;5032368;28;20096;-56
2022/04/27 19:37:05;;;;;;;14.93;4.22;;;9.40;92.10;;;;;;5029455;28;20095;-56
2022/04/27 19:39:32;;;;;;;13.65;3.65;;;9.40;92.30;;;;;;5029086;28;20041;-51
2022/04/27 19:41:59;;;;;;;19.48;4.72;;;9.30;92.40;;;;;;5032534;28;20433;-53
2022/04/27 19:44:25;;;;;;;15.45;4.20;;;9.30;92.50;;;;;;5029061;28;20046;-55
2022/04/27 19:46:52;;;;;;;14.75;3.95;;;9.20;92.50;;;;;;5032658;28;20497;-52
2022/04/27 19:49:19;;;;;;;13.35;4.25;;;9.10;92.40;;;;;;5032039;28;20045;-57
2022/04/27 19:51:50;;;;;;;15.95;3.85;;;9.10;92.40;;;;;;5033400;28;20099;-53
2022/04/27 19:54:17;;;;;;;17.45;4.05;;;9.00;92.40;;;;;;5032013;28;20052;-52
2022/04/27 19:56:44;;;;;;;12.38;3.60;;;9.00;92.40;;;;;;5032374;28;20591;-51
2022/04/27 19:59:13;;;;;;;13.27;3.70;;;9.00;92.50;;;;;;5031918;28;20561;-53
2022/04/27 20:01:40;;;;;;;14.93;3.50;;;8.90;92.40;;;;;;5033076;28;20041;-53
2022/04/27 20:04:07;;;;;;;11.75;3.58;;;8.90;92.40;;;;;;5028891;28;20428;-51
2022/04/27 20:06:34;;;;;;;18.13;4.03;;;8.80;92.20;;;;;;5031932;28;20041;-53
2022/04/27 20:09:01;;;;;;;15.35;4.20;;;8.80;92.30;;;;;;5031624;28;20045;-51
2022/04/27 20:11:30;;;;;;;11.75;3.63;;;8.70;92.20;;;;;;5026209;28;20044;-55
2022/04/27 20:13:57;;;;;;;18.85;4.00;;;8.70;92.20;;;;;;5029758;28;20121;-55
2022/04/27 20:16:25;;;;;;;13.88;3.58;;;8.60;92.10;;;;;;5007682;28;20037;-52
2022/04/27 20:18:53;;;;;;;17.45;4.22;;;8.70;92.20;;;;;;5030708;28;20068;-56
2022/04/27 20:21:21;;;;;;;13.98;4.57;;;8.60;92.20;;;;;;5028721;28;20037;-50
2022/04/27 20:23:49;;;;;;;11.85;3.95;;;8.60;92.40;;;;;;5028902;28;20053;-55
2022/04/27 20:26:16;;;;;;;13.38;3.88;;;8.60;92.50;;;;;;5033828;28;20053;-54
2022/04/27 20:28:44;;;;;;;14.77;3.88;;;8.50;92.50;;;;;;5034846;28;20037;-53
2022/04/27 20:31:12;;;;;;;11.35;3.67;;;8.50;92.60;;;;;;5034291;28;20060;-56
2022/04/27 20:33:38;;;;;;;16.13;4.38;;;8.60;92.80;;;;;;5035672;28;20540;-54
2022/04/27 20:36:05;;;;;;;10.73;3.97;;;8.60;92.50;;;;;;5033889;28;20083;-56
2022/04/27 20:38:32;;;;;;;10.43;3.60;;;8.60;92.60;;;;;;5034082;28;20041;-57
2022/04/27 20:40:59;;;;;;;14.93;3.92;;;8.70;92.50;;;;;;5034940;28;20037;-56
2022/04/27 20:43:26;;;;;;;11.38;3.88;;;8.80;92.40;;;;;;5032862;28;20390;-55
2022/04/27 20:45:53;;;;;;;13.68;3.70;;;8.80;92.30;;;;;;5015317;28;20045;-51
2022/04/27 20:48:22;;;;;;;11.68;3.97;;;8.80;92.40;;;;;;5034702;28;20029;-53
2022/04/27 20:50:48;;;;;;;12.50;4.30;;;8.90;92.40;;;;;;5035089;28;20503;-56
2022/04/27 20:53:15;;;;;;;12.82;3.88;;;8.90;92.40;;;;;;5032755;28;20037;-54
2022/04/27 20:55:42;;;;;;;13.05;3.65;;;8.90;92.40;;;;;;5033628;28;20041;-55
2022/04/27 20:58:09;;;;;;;10.75;3.60;;;8.90;92.30;;;;;;5035662;28;20046;-53
2022/04/27 21:00:35;;;;;;;15.30;3.83;;;8.90;92.30;;;;;;5032554;28;20041;-51
2022/04/27 21:03:03;;;;;;;14.02;4.65;;;9.00;92.40;;;;;;5034603;28;20450;-56
2022/04/27 21:05:34;;;;;;;10.65;3.65;;;9.00;92.30;;;;;;5035495;28;20056;-57
2022/04/27 21:08:01;;;;;;;12.82;3.88;;;9.00;92.60;;;;;;5032415;28;20025;-55
2022/04/27 21:10:28;;;;;;;11.20;3.65;;;9.00;92.30;;;;;;5034861;28;20061;-52
2022/04/27 21:12:55;;;;;;;9.23;3.85;;;9.00;92.20;;;;;;5035219;28;20033;-56
2022/04/27 21:15:22;;;;;;;9.05;3.58;;;9.00;92.40;;;;;;5032081;28;20053;-54
2022/04/27 21:17:49;;;;;;;10.75;3.28;;;9.00;92.40;;;;;;5034772;28;20063;-55
2022/04/27 21:20:15;;;;;;;9.68;3.70;;;9.00;92.40;;;;;;5034972;28;20037;-56
2022/04/27 21:22:43;;;;;;;16.38;4.05;;;8.90;92.60;;;;;;5033304;28;20041;-53
2022/04/27 21:25:10;;;;;;;13.15;3.75;;;9.00;92.60;;;;;;5035593;28;20033;-54
2022/04/27 21:27:37;;;;;;;9.68;3.25;;;8.90;92.70;;;;;;5034039;28;20095;-54
2022/04/27 21:30:06;;;;;;;11.43;3.60;;;8.90;92.60;;;;;;5035169;28;20457;-57
2022/04/27 21:32:33;;;;;;;12.95;3.47;;;8.90;92.50;;;;;;5035502;28;20045;-54
2022/04/27 21:34:59;;;;;;;9.18;3.05;;;8.80;92.30;;;;;;5035022;28;20507;-55
2022/04/27 21:37:27;;;;;;;11.07;3.47;;;8.80;92.40;;;;;;5035414;28;20045;-50
2022/04/27 21:39:54;;;;;;;12.18;3.17;;;8.80;92.30;;;;;;5035399;28;20049;-51
2022/04/27 21:42:21;;;;;;;11.73;3.75;;;8.80;92.50;;;;;;5033806;28;20046;-54
2022/04/27 21:44:47;;;;;;;12.38;3.33;;;8.80;92.40;;;;;;5035182;28;20041;-54
2022/04/27 21:47:14;;;;;;;12.20;3.80;;;8.70;92.20;;;;;;5033902;28;20468;-57
2022/04/27 21:49:41;;;;;;;15.70;3.40;;;8.70;92.20;;;;;;5033843;28;20042;-56
2022/04/27 21:52:08;;;;;;;11.73;3.35;;;8.70;92.20;;;;;;5034992;28;20065;-57
2022/04/27 21:54:35;;;;;;;14.75;3.97;;;8.70;92.10;;;;;;5036281;28;20087;-55
2022/04/27 21:57:02;;;;;;;11.80;3.50;;;8.70;92.20;;;;;;5035076;28;20269;-54
2022/04/27 21:59:29;;;;;;;10.40;3.17;;;8.60;92.00;;;;;;5034797;28;20451;-56
2022/04/27 22:01:55;;;;;;;10.15;3.53;;;8.60;92.00;;;;;;5034699;28;20076;-52
2022/04/27 22:04:24;;;;;;;11.15;3.75;;;8.60;91.90;;;;;;5034736;28;20485;-56
2022/04/27 22:06:51;;;;;;;12.40;3.25;;;8.60;92.10;;;;;;5034777;28;20053;-55
2022/04/27 22:09:17;;;;;;;9.57;3.53;;;8.70;92.00;;;;;;5033598;28;20060;-56
2022/04/27 22:11:44;;;;;;;8.75;3.25;;;8.60;92.10;;;;;;5033872;28;20037;-53
2022/04/27 22:14:11;;;;;;;13.60;3.33;;;8.60;92.20;;;;;;5034690;28;20528;-54
2022/04/27 22:16:38;;;;;;;12.68;3.10;;;8.60;92.20;;;;;;5034683;28;20428;-57
2022/04/27 22:19:04;;;;;;;11.20;3.70;;;8.50;92.40;;;;;;5034569;28;20115;-56
2022/04/27 22:21:31;;;;;;;10.55;3.40;;;8.50;92.60;;;;;;5034531;28;20041;-53
2022/04/27 22:23:58;;;;;;;11.05;3.45;;;8.40;92.70;;;;;;5035065;28;20060;-54
2022/04/27 22:26:24;;;;;;;11.60;3.90;;;8.40;92.90;;;;;;5030020;28;20069;-54
2022/04/27 22:28:51;;;;;;;10.00;3.72;;;8.30;93.00;;;;;;5031663;28;20489;-56
2022/04/27 22:31:18;;;;;;;9.73;3.58;;;8.30;93.20;;;;;;5032007;28;20049;-54
2022/04/27 22:33:45;;;;;;;10.75;3.47;;;8.20;93.00;;;;;;5034290;28;20063;-52
2022/04/27 22:36:12;;;;;;;12.18;3.38;;;8.20;93.10;;;;;;5034214;28;20434;-51
2022/04/27 22:38:38;;;;;;;14.82;3.78;;;8.20;93.30;;;;;;5034198;28;20109;-55
2022/04/27 22:41:05;;;;;;;14.32;3.78;;;8.10;93.30;;;;;;5034140;28;20123;-54
2022/04/27 22:43:32;;;;;;;7.88;3.15;;;8.10;93.30;;;;;;5034236;28;20045;-57
2022/04/27 22:45:58;;;;;;;7.93;3.05;;;8.00;93.20;;;;;;5033954;28;20485;-56
